Main page
METAR-TAF:

METAR-TAF

Airports :

Carlisle Lake District Airport

Carlisle, England

latitude: 54-56-15N, longitude: 002-48-33W, elevation: 57 m

Current weather observation

The report was made 20 minutes ago, at 13:20 UTC
Wind 14 kt from the East/Northeast, varying between Northeast and East
Temperature 19°C
Humidity 56%
Pressure 1023 hPa
Visibility 10 km or more
Few clouds at a height of 3200 ft

METAR: EGNC 241320Z 07014KT 040V100 9999 FEW032 19/10 Q1023

Time: 14:40 (13:40 UTC)

Forecast

The report was made 2 hours and 36 minutes ago, at 11:04 UTC
Forecast valid from 24 at 12 UTC to 24 at 17 UTC
Wind 9 kt from the East
Visibility 10 km or more
Few clouds at a height of 1800 ft

TAF: EGNC 241104Z 2412/2417 08009KT 9999 FEW018

Weather observations and forecasts of more than 4000 airports (METAR and TAF reports).

The available stations are represented by yellow and red dots on the map.

Hover mouse over dot to see the name of the station.

Then click to see weather observations and forecasts.

To change the map : click on the green buttons with a black cross to zoom in, on the green button with a dash to zoom out, or on the green arrows for adjacent maps.


METAR-TAF: